createdAt,value
2023-01-07T00:03:52.741Z,0.00
2023-01-07T00:08:52.581Z,0.00
2023-01-07T00:13:52.894Z,0.00
2023-01-07T00:18:52.584Z,0.00
2023-01-07T00:23:52.386Z,0.00
2023-01-07T00:28:55.899Z,0.00
2023-01-07T00:33:52.251Z,0.00
2023-01-07T00:38:53.395Z,0.00
2023-01-07T00:43:52.271Z,0.00
2023-01-07T00:48:52.265Z,0.00
2023-01-07T00:53:52.021Z,0.00
2023-01-07T00:58:58.324Z,0.00
2023-01-07T01:03:53.326Z,0.00
2023-01-07T01:08:51.891Z,0.00
2023-01-07T01:13:56.473Z,0.00
2023-01-07T01:18:58.636Z,0.00
2023-01-07T01:23:51.523Z,0.00
2023-01-07T01:28:51.536Z,0.00
2023-01-07T01:33:51.768Z,0.00
2023-01-07T01:38:51.355Z,0.00
2023-01-07T01:43:54.658Z,0.00
2023-01-07T01:48:51.137Z,0.00
2023-01-07T01:53:51.064Z,0.00
2023-01-07T01:58:51.068Z,0.00
2023-01-07T02:03:50.981Z,0.00
2023-01-07T02:08:50.878Z,0.00
2023-01-07T02:13:50.833Z,0.00
2023-01-07T02:18:50.767Z,0.00
2023-01-07T02:23:50.720Z,0.00
2023-01-07T02:28:50.682Z,0.00
2023-01-07T02:33:50.561Z,0.00
2023-01-07T02:38:50.489Z,0.00
2023-01-07T02:43:50.406Z,0.00
2023-01-07T02:48:50.646Z,0.00
2023-01-07T02:53:50.276Z,0.00
2023-01-07T02:58:50.254Z,0.00
2023-01-07T03:03:50.166Z,0.00
2023-01-07T03:08:50.218Z,0.00
2023-01-07T03:13:50.002Z,0.00
2023-01-07T03:18:49.981Z,0.00
2023-01-07T03:23:49.909Z,0.00
2023-01-07T03:28:49.898Z,0.00
2023-01-07T03:33:49.742Z,0.00
2023-01-07T03:38:49.678Z,0.00
2023-01-07T03:43:49.671Z,0.00
2023-01-07T03:48:49.537Z,0.00
2023-01-07T03:53:49.488Z,0.00
2023-01-07T03:58:49.475Z,0.00
2023-01-07T04:03:49.380Z,0.00
2023-01-07T04:08:49.311Z,0.00
2023-01-07T04:13:49.202Z,0.00
2023-01-07T04:18:49.171Z,0.00
2023-01-07T04:23:50.094Z,0.00
2023-01-07T04:28:49.052Z,0.00
2023-01-07T04:33:49.254Z,0.00
2023-01-07T04:38:48.909Z,0.00
2023-01-07T04:43:48.849Z,0.00
2023-01-07T04:48:48.749Z,0.00
2023-01-07T04:53:48.718Z,0.00
2023-01-07T04:58:48.612Z,0.00
2023-01-07T05:03:48.611Z,0.00
2023-01-07T05:08:48.515Z,0.00
2023-01-07T05:13:48.422Z,0.00
2023-01-07T05:18:48.454Z,0.00
2023-01-07T05:23:48.359Z,0.00
2023-01-07T05:28:48.277Z,0.00
2023-01-07T05:33:48.217Z,0.00
2023-01-07T05:38:48.135Z,0.00
2023-01-07T05:43:48.043Z,0.00
2023-01-07T05:48:48.076Z,0.00
2023-01-07T05:53:47.999Z,0.00
2023-01-07T05:58:47.928Z,0.00
2023-01-07T06:03:47.886Z,0.00
2023-01-07T06:08:47.762Z,0.00
2023-01-07T06:13:47.629Z,0.00
2023-01-07T06:18:47.634Z,0.00
2023-01-07T06:23:47.571Z,0.00
2023-01-07T06:28:47.464Z,0.00
2023-01-07T06:33:47.391Z,0.00
2023-01-07T06:38:47.448Z,0.00
2023-01-07T06:43:47.273Z,0.00
2023-01-07T06:48:47.204Z,0.00
2023-01-07T06:53:47.252Z,0.00
2023-01-07T06:58:47.137Z,0.00
2023-01-07T07:03:47.028Z,0.00
2023-01-07T07:08:46.934Z,5.62
2023-01-07T07:13:46.933Z,11.25
2023-01-07T07:18:46.775Z,28.12
2023-01-07T07:23:46.724Z,22.50
2023-01-07T07:28:46.652Z,22.50
2023-01-07T07:33:46.606Z,22.50
2023-01-07T07:38:46.551Z,28.12
2023-01-07T07:43:46.488Z,28.12
2023-01-07T07:48:46.447Z,28.12
2023-01-07T07:53:46.356Z,28.12
2023-01-07T07:58:46.305Z,39.38
2023-01-07T08:03:46.443Z,61.88
2023-01-07T08:08:47.005Z,84.38
2023-01-07T08:13:46.074Z,95.62
2023-01-07T08:18:46.044Z,106.88
2023-01-07T08:23:45.954Z,123.75
2023-01-07T08:28:46.736Z,118.12
2023-01-07T08:33:45.908Z,123.75
2023-01-07T08:38:45.770Z,146.25
2023-01-07T08:43:45.778Z,151.88
2023-01-07T08:48:45.611Z,140.62
2023-01-07T08:53:45.599Z,157.50
2023-01-07T08:58:45.578Z,168.75
2023-01-07T09:03:45.471Z,185.62
2023-01-07T09:08:45.381Z,163.12
2023-01-07T09:13:45.401Z,180.00
2023-01-07T09:18:45.312Z,270.00
2023-01-07T09:23:45.423Z,281.25
2023-01-07T09:28:45.080Z,326.25
2023-01-07T09:33:45.030Z,315.00
2023-01-07T09:38:44.947Z,270.00
2023-01-07T09:43:59.813Z,281.25
2023-01-07T09:48:45.808Z,343.12
2023-01-07T09:53:44.751Z,303.75
2023-01-07T09:58:44.689Z,292.50
2023-01-07T10:03:44.657Z,303.75
2023-01-07T10:08:44.650Z,326.25
2023-01-07T10:13:44.692Z,376.88
2023-01-07T10:18:44.503Z,360.00
2023-01-07T10:23:44.411Z,365.62
2023-01-07T10:28:44.302Z,320.62
2023-01-07T10:33:44.296Z,292.50
2023-01-07T10:38:44.150Z,303.75
2023-01-07T10:43:44.098Z,292.50
2023-01-07T10:48:44.025Z,236.25
2023-01-07T10:53:43.938Z,213.75
2023-01-07T10:58:43.892Z,270.00
2023-01-07T11:03:43.863Z,320.62
2023-01-07T11:08:43.739Z,382.50
2023-01-07T11:13:43.734Z,393.75
2023-01-07T11:18:43.629Z,365.62
2023-01-07T11:23:44.189Z,253.12
2023-01-07T11:28:43.473Z,275.62
2023-01-07T11:34:02.120Z,292.50
2023-01-07T11:38:44.356Z,326.25
2023-01-07T11:43:43.360Z,303.75
2023-01-07T11:48:43.226Z,286.88
2023-01-07T11:53:43.177Z,275.62
2023-01-07T11:58:43.124Z,258.75
2023-01-07T12:03:43.131Z,270.00
2023-01-07T12:08:43.029Z,286.88
2023-01-07T12:13:42.929Z,292.50
2023-01-07T12:18:42.913Z,292.50
2023-01-07T12:23:42.783Z,331.88
2023-01-07T12:28:42.708Z,326.25
2023-01-07T12:33:42.684Z,315.00
2023-01-07T12:38:42.543Z,337.50
2023-01-07T12:43:42.501Z,337.50
2023-01-07T12:48:42.676Z,326.25
2023-01-07T12:53:42.377Z,292.50
2023-01-07T12:58:42.325Z,253.12
2023-01-07T13:03:42.228Z,241.88
2023-01-07T13:08:42.227Z,241.88
2023-01-07T13:13:42.174Z,225.00
2023-01-07T13:18:42.056Z,225.00
2023-01-07T13:23:42.061Z,219.38
2023-01-07T13:28:41.890Z,196.88
2023-01-07T13:33:41.862Z,180.00
2023-01-07T13:38:41.871Z,151.88
2023-01-07T13:43:41.697Z,174.38
2023-01-07T13:48:41.626Z,180.00
2023-01-07T13:53:41.556Z,151.88
2023-01-07T13:58:41.501Z,140.62
2023-01-07T14:03:41.489Z,129.38
2023-01-07T14:08:41.429Z,101.25
2023-01-07T14:13:41.300Z,90.00
2023-01-07T14:18:41.979Z,67.50
2023-01-07T14:23:41.219Z,90.00
2023-01-07T14:28:41.132Z,101.25
2023-01-07T14:33:41.107Z,101.25
2023-01-07T14:38:41.023Z,90.00
2023-01-07T14:43:41.017Z,73.12
2023-01-07T14:48:40.864Z,61.88
2023-01-07T14:53:40.788Z,56.25
2023-01-07T14:58:40.766Z,39.38
2023-01-07T15:03:40.701Z,33.75
2023-01-07T15:08:40.641Z,22.50
2023-01-07T15:13:40.544Z,16.88
2023-01-07T15:18:40.524Z,11.25
2023-01-07T15:23:40.419Z,5.62
2023-01-07T15:28:40.313Z,0.00
2023-01-07T15:33:40.271Z,0.00
2023-01-07T15:38:40.219Z,0.00
2023-01-07T15:43:40.203Z,0.00
2023-01-07T15:48:40.125Z,0.00
2023-01-07T15:53:40.017Z,0.00
2023-01-07T15:58:39.953Z,0.00
2023-01-07T16:03:39.937Z,0.00
2023-01-07T16:08:39.783Z,0.00
2023-01-07T16:13:39.732Z,0.00
2023-01-07T16:18:39.661Z,0.00
2023-01-07T16:23:39.643Z,0.00
2023-01-07T16:28:39.579Z,0.00
2023-01-07T16:33:39.567Z,0.00
2023-01-07T16:38:39.689Z,0.00
2023-01-07T16:43:39.458Z,0.00
2023-01-07T16:48:39.277Z,0.00
2023-01-07T16:53:39.226Z,0.00
2023-01-07T16:58:39.134Z,0.00
2023-01-07T17:03:39.124Z,0.00
2023-01-07T17:08:39.037Z,0.00
2023-01-07T17:13:38.978Z,0.00
2023-01-07T17:18:38.906Z,0.00
2023-01-07T17:23:38.891Z,0.00
2023-01-07T17:28:38.803Z,0.00
2023-01-07T17:33:38.715Z,0.00
2023-01-07T17:38:38.660Z,0.00
2023-01-07T17:43:38.587Z,0.00
2023-01-07T17:48:38.514Z,0.00
2023-01-07T17:53:38.436Z,0.00
2023-01-07T17:58:38.487Z,0.00
2023-01-07T18:03:38.296Z,0.00
2023-01-07T18:08:38.259Z,0.00
2023-01-07T18:13:38.191Z,0.00
2023-01-07T18:18:38.586Z,0.00
2023-01-07T18:23:38.136Z,0.00
2023-01-07T18:28:38.136Z,0.00
2023-01-07T18:33:38.080Z,0.00
2023-01-07T18:38:38.166Z,0.00
2023-01-07T18:43:37.984Z,0.00
2023-01-07T18:48:37.733Z,0.00
2023-01-07T18:53:37.704Z,0.00
2023-01-07T18:58:37.584Z,0.00
2023-01-07T19:03:37.615Z,0.00
2023-01-07T19:08:37.444Z,0.00
2023-01-07T19:13:37.418Z,0.00
2023-01-07T19:18:38.783Z,0.00
2023-01-07T19:23:37.375Z,0.00
2023-01-07T19:28:37.161Z,0.00
2023-01-07T19:33:37.205Z,0.00
2023-01-07T19:38:37.061Z,0.00
2023-01-07T19:43:37.078Z,0.00
2023-01-07T19:48:37.028Z,0.00
2023-01-07T19:53:36.834Z,0.00
2023-01-07T19:58:36.785Z,0.00
2023-01-07T20:03:36.742Z,0.00
2023-01-07T20:08:36.649Z,0.00
2023-01-07T20:13:36.627Z,0.00
2023-01-07T20:18:36.516Z,0.00
2023-01-07T20:23:36.455Z,0.00
2023-01-07T20:28:36.436Z,0.00
2023-01-07T20:33:37.464Z,0.00
2023-01-07T20:38:36.328Z,0.00
2023-01-07T20:43:37.223Z,0.00
2023-01-07T20:48:36.267Z,0.00
2023-01-07T20:53:36.474Z,0.00
2023-01-07T20:58:36.037Z,0.00
2023-01-07T21:03:35.998Z,0.00
2023-01-07T21:08:35.905Z,0.00
2023-01-07T21:13:35.855Z,0.00
2023-01-07T21:18:35.948Z,0.00
2023-01-07T21:23:35.692Z,0.00
2023-01-07T21:28:36.121Z,0.00
2023-01-07T21:33:35.608Z,0.00
2023-01-07T21:38:35.533Z,0.00
2023-01-07T21:43:35.491Z,0.00
2023-01-07T21:48:35.443Z,0.00
2023-01-07T21:53:35.400Z,0.00
2023-01-07T21:58:35.327Z,0.00
2023-01-07T22:03:35.253Z,0.00
2023-01-07T22:08:35.160Z,0.00
2023-01-07T22:13:36.033Z,0.00
2023-01-07T22:18:35.001Z,0.00
2023-01-07T22:23:37.236Z,0.00
2023-01-07T22:28:34.826Z,0.00
2023-01-07T22:33:34.826Z,0.00
2023-01-07T22:38:34.710Z,0.00
2023-01-07T22:43:34.688Z,0.00
2023-01-07T22:48:34.623Z,0.00
2023-01-07T22:53:34.590Z,0.00
2023-01-07T22:58:34.519Z,0.00
2023-01-07T23:03:34.496Z,0.00
2023-01-07T23:08:34.341Z,0.00
2023-01-07T23:13:34.293Z,0.00
2023-01-07T23:18:34.227Z,0.00
2023-01-07T23:23:34.211Z,0.00
2023-01-07T23:28:34.154Z,0.00
2023-01-07T23:33:34.035Z,0.00
2023-01-07T23:38:33.990Z,0.00
2023-01-07T23:43:33.883Z,0.00
2023-01-07T23:48:33.903Z,0.00
2023-01-07T23:53:33.747Z,0.00
2023-01-07T23:58:33.687Z,0.00
